sensor_id;sensor_type;location;lat;lon;timestamp;temperature;humidity
65231;DHT22;51813;40.666;16.602;2022-08-19T00:01:38;26.50;62.20
65231;DHT22;51813;40.666;16.602;2022-08-19T00:04:07;26.50;62.50
65231;DHT22;51813;40.666;16.602;2022-08-19T00:06:34;26.50;61.60
65231;DHT22;51813;40.666;16.602;2022-08-19T00:09:02;26.50;61.90
65231;DHT22;51813;40.666;16.602;2022-08-19T00:11:28;26.50;61.70
65231;DHT22;51813;40.666;16.602;2022-08-19T00:13:55;26.50;61.20
65231;DHT22;51813;40.666;16.602;2022-08-19T00:16:22;26.50;61.40
65231;DHT22;51813;40.666;16.602;2022-08-19T00:18:48;26.50;61.70
65231;DHT22;51813;40.666;16.602;2022-08-19T00:21:15;26.50;61.60
65231;DHT22;51813;40.666;16.602;2022-08-19T00:23:42;26.50;61.70
65231;DHT22;51813;40.666;16.602;2022-08-19T00:26:10;26.50;61.80
65231;DHT22;51813;40.666;16.602;2022-08-19T00:28:36;26.50;61.30
65231;DHT22;51813;40.666;16.602;2022-08-19T00:31:06;26.50;61.50
65231;DHT22;51813;40.666;16.602;2022-08-19T00:33:32;26.50;61.60
65231;DHT22;51813;40.666;16.602;2022-08-19T00:36:04;26.40;61.90
65231;DHT22;51813;40.666;16.602;2022-08-19T00:38:32;26.50;61.60
65231;DHT22;51813;40.666;16.602;2022-08-19T00:40:58;26.50;62.20
65231;DHT22;51813;40.666;16.602;2022-08-19T00:43:26;26.50;62.00
65231;DHT22;51813;40.666;16.602;2022-08-19T00:45:52;26.50;62.30
65231;DHT22;51813;40.666;16.602;2022-08-19T00:48:19;26.50;62.00
65231;DHT22;51813;40.666;16.602;2022-08-19T00:50:46;26.50;61.80
65231;DHT22;51813;40.666;16.602;2022-08-19T00:53:16;26.50;61.60
65231;DHT22;51813;40.666;16.602;2022-08-19T00:55:46;26.50;61.40
65231;DHT22;51813;40.666;16.602;2022-08-19T00:58:17;26.50;61.40
65231;DHT22;51813;40.666;16.602;2022-08-19T01:00:44;26.40;61.80
65231;DHT22;51813;40.666;16.602;2022-08-19T01:03:14;26.50;62.00
65231;DHT22;51813;40.666;16.602;2022-08-19T01:05:42;26.50;62.00
65231;DHT22;51813;40.666;16.602;2022-08-19T01:08:09;26.50;62.80
65231;DHT22;51813;40.666;16.602;2022-08-19T01:11:01;26.40;62.00
65231;DHT22;51813;40.666;16.602;2022-08-19T01:13:30;26.40;62.10
65231;DHT22;51813;40.666;16.602;2022-08-19T01:16:06;26.40;61.80
65231;DHT22;51813;40.666;16.602;2022-08-19T01:18:36;26.40;62.40
65231;DHT22;51813;40.666;16.602;2022-08-19T01:21:09;26.40;61.90
65231;DHT22;51813;40.666;16.602;2022-08-19T01:23:36;26.40;62.70
65231;DHT22;51813;40.666;16.602;2022-08-19T01:26:17;26.40;62.00
65231;DHT22;51813;40.666;16.602;2022-08-19T01:28:45;26.40;62.10
65231;DHT22;51813;40.666;16.602;2022-08-19T01:31:21;26.40;61.70
65231;DHT22;51813;40.666;16.602;2022-08-19T01:33:49;26.40;61.70
65231;DHT22;51813;40.666;16.602;2022-08-19T01:36:24;26.40;61.50
65231;DHT22;51813;40.666;16.602;2022-08-19T01:38:51;26.40;61.70
65231;DHT22;51813;40.666;16.602;2022-08-19T01:41:18;26.40;61.70
65231;DHT22;51813;40.666;16.602;2022-08-19T01:43:44;26.40;61.90
65231;DHT22;51813;40.666;16.602;2022-08-19T01:46:10;26.40;62.00
65231;DHT22;51813;40.666;16.602;2022-08-19T01:48:39;26.40;62.30
65231;DHT22;51813;40.666;16.602;2022-08-19T01:51:06;26.40;62.10
65231;DHT22;51813;40.666;16.602;2022-08-19T01:53:32;26.40;61.90
65231;DHT22;51813;40.666;16.602;2022-08-19T01:55:58;26.40;62.10
65231;DHT22;51813;40.666;16.602;2022-08-19T01:58:30;26.40;61.80
65231;DHT22;51813;40.666;16.602;2022-08-19T02:00:58;26.40;61.60
65231;DHT22;51813;40.666;16.602;2022-08-19T02:03:23;26.40;61.80
65231;DHT22;51813;40.666;16.602;2022-08-19T02:05:55;26.40;61.80
65231;DHT22;51813;40.666;16.602;2022-08-19T02:08:21;26.40;62.00
65231;DHT22;51813;40.666;16.602;2022-08-19T02:10:47;26.40;62.00
65231;DHT22;51813;40.666;16.602;2022-08-19T02:13:13;26.40;61.90
65231;DHT22;51813;40.666;16.602;2022-08-19T02:15:39;26.40;61.80
65231;DHT22;51813;40.666;16.602;2022-08-19T02:18:05;26.40;60.70
65231;DHT22;51813;40.666;16.602;2022-08-19T02:20:32;26.40;59.50
65231;DHT22;51813;40.666;16.602;2022-08-19T02:22:59;26.40;60.20
65231;DHT22;51813;40.666;16.602;2022-08-19T02:25:26;26.40;59.90
65231;DHT22;51813;40.666;16.602;2022-08-19T02:27:52;26.40;60.30
65231;DHT22;51813;40.666;16.602;2022-08-19T02:30:19;26.40;61.10
65231;DHT22;51813;40.666;16.602;2022-08-19T02:32:46;26.40;61.40
65231;DHT22;51813;40.666;16.602;2022-08-19T02:35:13;26.40;61.00
65231;DHT22;51813;40.666;16.602;2022-08-19T02:37:40;26.40;60.70
65231;DHT22;51813;40.666;16.602;2022-08-19T02:40:25;26.40;60.60
65231;DHT22;51813;40.666;16.602;2022-08-19T02:42:51;26.40;60.20
65231;DHT22;51813;40.666;16.602;2022-08-19T02:45:17;26.40;60.00
65231;DHT22;51813;40.666;16.602;2022-08-19T02:47:43;26.40;60.30
65231;DHT22;51813;40.666;16.602;2022-08-19T02:50:09;26.40;60.30
65231;DHT22;51813;40.666;16.602;2022-08-19T02:52:36;26.40;61.40
65231;DHT22;51813;40.666;16.602;2022-08-19T02:55:02;26.30;61.40
65231;DHT22;51813;40.666;16.602;2022-08-19T02:57:27;26.40;61.70
65231;DHT22;51813;40.666;16.602;2022-08-19T02:59:56;26.30;61.10
65231;DHT22;51813;40.666;16.602;2022-08-19T03:02:22;26.40;61.20
65231;DHT22;51813;40.666;16.602;2022-08-19T03:04:48;26.40;61.10
65231;DHT22;51813;40.666;16.602;2022-08-19T03:07:15;26.40;61.10
65231;DHT22;51813;40.666;16.602;2022-08-19T03:09:41;26.30;60.70
65231;DHT22;51813;40.666;16.602;2022-08-19T03:12:10;26.30;60.60
65231;DHT22;51813;40.666;16.602;2022-08-19T03:14:36;26.40;60.90
65231;DHT22;51813;40.666;16.602;2022-08-19T03:17:03;26.40;61.50
65231;DHT22;51813;40.666;16.602;2022-08-19T03:19:30;26.30;61.40
65231;DHT22;51813;40.666;16.602;2022-08-19T03:21:57;26.30;61.30
65231;DHT22;51813;40.666;16.602;2022-08-19T03:24:23;26.30;61.40
65231;DHT22;51813;40.666;16.602;2022-08-19T03:26:52;26.30;61.70
65231;DHT22;51813;40.666;16.602;2022-08-19T03:29:19;26.30;61.30
65231;DHT22;51813;40.666;16.602;2022-08-19T03:31:45;26.30;61.10
65231;DHT22;51813;40.666;16.602;2022-08-19T03:34:14;26.30;61.10
65231;DHT22;51813;40.666;16.602;2022-08-19T03:36:41;26.30;61.30
65231;DHT22;51813;40.666;16.602;2022-08-19T03:39:06;26.30;61.60
65231;DHT22;51813;40.666;16.602;2022-08-19T03:41:37;26.30;61.20
65231;DHT22;51813;40.666;16.602;2022-08-19T03:44:03;26.30;61.30
65231;DHT22;51813;40.666;16.602;2022-08-19T03:46:31;26.30;61.00
65231;DHT22;51813;40.666;16.602;2022-08-19T03:48:59;26.30;61.40
65231;DHT22;51813;40.666;16.602;2022-08-19T03:51:36;26.30;61.00
65231;DHT22;51813;40.666;16.602;2022-08-19T03:54:05;26.30;61.20
65231;DHT22;51813;40.666;16.602;2022-08-19T03:56:35;26.30;61.10
65231;DHT22;51813;40.666;16.602;2022-08-19T03:59:01;26.30;61.50
65231;DHT22;51813;40.666;16.602;2022-08-19T04:01:29;26.20;61.40
65231;DHT22;51813;40.666;16.602;2022-08-19T04:03:58;26.30;61.50
65231;DHT22;51813;40.666;16.602;2022-08-19T04:06:28;26.30;61.20
65231;DHT22;51813;40.666;16.602;2022-08-19T04:08:57;26.30;61.30
65231;DHT22;51813;40.666;16.602;2022-08-19T04:11:33;26.30;61.10
65231;DHT22;51813;40.666;16.602;2022-08-19T04:14:00;26.30;61.20
65231;DHT22;51813;40.666;16.602;2022-08-19T04:16:28;26.30;61.30
65231;DHT22;51813;40.666;16.602;2022-08-19T04:18:59;26.30;61.40
65231;DHT22;51813;40.666;16.602;2022-08-19T04:21:26;26.20;61.20
65231;DHT22;51813;40.666;16.602;2022-08-19T04:23:53;26.30;61.80
65231;DHT22;51813;40.666;16.602;2022-08-19T04:26:24;26.30;61.60
65231;DHT22;51813;40.666;16.602;2022-08-19T04:28:49;26.30;62.20
65231;DHT22;51813;40.666;16.602;2022-08-19T04:31:19;26.20;62.10
65231;DHT22;51813;40.666;16.602;2022-08-19T04:33:45;26.20;62.30
65231;DHT22;51813;40.666;16.602;2022-08-19T04:36:21;26.20;62.20
65231;DHT22;51813;40.666;16.602;2022-08-19T04:38:48;26.20;62.70
65231;DHT22;51813;40.666;16.602;2022-08-19T04:41:14;26.20;62.90
65231;DHT22;51813;40.666;16.602;2022-08-19T04:43:58;26.20;62.10
65231;DHT22;51813;40.666;16.602;2022-08-19T04:46:25;26.20;62.20
65231;DHT22;51813;40.666;16.602;2022-08-19T04:48:51;26.20;62.70
65231;DHT22;51813;40.666;16.602;2022-08-19T04:51:18;26.20;63.00
65231;DHT22;51813;40.666;16.602;2022-08-19T04:53:43;26.20;63.80
65231;DHT22;51813;40.666;16.602;2022-08-19T04:56:15;26.20;64.10
65231;DHT22;51813;40.666;16.602;2022-08-19T04:58:44;26.20;64.50
65231;DHT22;51813;40.666;16.602;2022-08-19T05:01:17;26.20;64.70
65231;DHT22;51813;40.666;16.602;2022-08-19T05:03:43;26.20;64.90
65231;DHT22;51813;40.666;16.602;2022-08-19T05:06:12;26.20;64.40
65231;DHT22;51813;40.666;16.602;2022-08-19T05:08:39;26.20;63.80
65231;DHT22;51813;40.666;16.602;2022-08-19T05:11:29;26.20;63.70
65231;DHT22;51813;40.666;16.602;2022-08-19T05:13:55;26.20;65.00
65231;DHT22;51813;40.666;16.602;2022-08-19T05:16:22;26.20;65.30
65231;DHT22;51813;40.666;16.602;2022-08-19T05:18:48;26.20;65.60
65231;DHT22;51813;40.666;16.602;2022-08-19T05:21:33;26.10;65.70
65231;DHT22;51813;40.666;16.602;2022-08-19T05:24:17;26.20;66.10
65231;DHT22;51813;40.666;16.602;2022-08-19T05:26:46;26.20;66.20
65231;DHT22;51813;40.666;16.602;2022-08-19T05:29:14;26.10;66.00
65231;DHT22;51813;40.666;16.602;2022-08-19T05:31:41;26.20;64.70
65231;DHT22;51813;40.666;16.602;2022-08-19T05:34:07;26.20;65.20
65231;DHT22;51813;40.666;16.602;2022-08-19T05:36:38;26.20;66.20
65231;DHT22;51813;40.666;16.602;2022-08-19T05:39:09;26.20;65.50
65231;DHT22;51813;40.666;16.602;2022-08-19T05:41:36;26.20;66.20
65231;DHT22;51813;40.666;16.602;2022-08-19T05:44:06;26.20;64.50
65231;DHT22;51813;40.666;16.602;2022-08-19T05:46:34;26.20;64.30
65231;DHT22;51813;40.666;16.602;2022-08-19T05:49:00;26.20;64.50
65231;DHT22;51813;40.666;16.602;2022-08-19T05:51:26;26.20;63.80
65231;DHT22;51813;40.666;16.602;2022-08-19T05:53:52;26.20;64.20
65231;DHT22;51813;40.666;16.602;2022-08-19T05:56:18;26.30;63.80
65231;DHT22;51813;40.666;16.602;2022-08-19T05:58:45;26.30;63.50
65231;DHT22;51813;40.666;16.602;2022-08-19T06:01:17;26.30;65.00
65231;DHT22;51813;40.666;16.602;2022-08-19T06:03:43;26.20;65.10
65231;DHT22;51813;40.666;16.602;2022-08-19T06:06:11;26.20;65.00
65231;DHT22;51813;40.666;16.602;2022-08-19T06:08:37;26.20;64.70
65231;DHT22;51813;40.666;16.602;2022-08-19T06:11:31;26.20;65.00
65231;DHT22;51813;40.666;16.602;2022-08-19T06:14:03;26.20;65.00
65231;DHT22;51813;40.666;16.602;2022-08-19T06:16:29;26.20;64.50
65231;DHT22;51813;40.666;16.602;2022-08-19T06:18:59;26.30;65.00
65231;DHT22;51813;40.666;16.602;2022-08-19T06:21:27;26.20;65.20
65231;DHT22;51813;40.666;16.602;2022-08-19T06:23:54;26.20;66.00
65231;DHT22;51813;40.666;16.602;2022-08-19T06:26:21;26.20;65.90
65231;DHT22;51813;40.666;16.602;2022-08-19T06:28:48;26.20;66.80
65231;DHT22;51813;40.666;16.602;2022-08-19T06:31:28;26.20;65.20
65231;DHT22;51813;40.666;16.602;2022-08-19T06:33:54;26.20;65.40
65231;DHT22;51813;40.666;16.602;2022-08-19T06:36:27;26.20;65.50
65231;DHT22;51813;40.666;16.602;2022-08-19T06:38:57;26.30;64.30
65231;DHT22;51813;40.666;16.602;2022-08-19T06:41:24;26.30;65.00
65231;DHT22;51813;40.666;16.602;2022-08-19T06:43:50;26.30;64.80
65231;DHT22;51813;40.666;16.602;2022-08-19T06:46:17;26.30;65.00
65231;DHT22;51813;40.666;16.602;2022-08-19T06:48:44;26.30;64.60
65231;DHT22;51813;40.666;16.602;2022-08-19T06:51:10;26.30;64.70
65231;DHT22;51813;40.666;16.602;2022-08-19T06:53:36;26.20;65.00
65231;DHT22;51813;40.666;16.602;2022-08-19T06:56:01;26.20;64.90
65231;DHT22;51813;40.666;16.602;2022-08-19T06:58:29;26.30;64.00
65231;DHT22;51813;40.666;16.602;2022-08-19T07:00:59;26.30;65.60
65231;DHT22;51813;40.666;16.602;2022-08-19T07:03:31;26.30;64.10
65231;DHT22;51813;40.666;16.602;2022-08-19T07:06:09;26.30;63.50
65231;DHT22;51813;40.666;16.602;2022-08-19T07:08:37;26.40;63.70
65231;DHT22;51813;40.666;16.602;2022-08-19T07:11:07;26.40;64.00
65231;DHT22;51813;40.666;16.602;2022-08-19T07:13:33;26.40;64.10
65231;DHT22;51813;40.666;16.602;2022-08-19T07:16:10;26.30;63.80
65231;DHT22;51813;40.666;16.602;2022-08-19T07:18:37;26.40;63.80
65231;DHT22;51813;40.666;16.602;2022-08-19T07:21:11;26.40;63.80
65231;DHT22;51813;40.666;16.602;2022-08-19T07:23:37;26.40;63.80
65231;DHT22;51813;40.666;16.602;2022-08-19T07:26:12;26.50;64.00
65231;DHT22;51813;40.666;16.602;2022-08-19T07:28:38;26.50;64.10
65231;DHT22;51813;40.666;16.602;2022-08-19T07:31:07;26.50;64.50
65231;DHT22;51813;40.666;16.602;2022-08-19T07:33:34;26.50;65.20
65231;DHT22;51813;40.666;16.602;2022-08-19T07:36:02;26.50;65.40
65231;DHT22;51813;40.666;16.602;2022-08-19T07:38:28;26.50;65.90
65231;DHT22;51813;40.666;16.602;2022-08-19T07:40:54;26.50;65.70
65231;DHT22;51813;40.666;16.602;2022-08-19T07:43:20;26.50;65.60
65231;DHT22;51813;40.666;16.602;2022-08-19T07:45:52;26.50;65.40
65231;DHT22;51813;40.666;16.602;2022-08-19T07:48:26;26.60;65.70
65231;DHT22;51813;40.666;16.602;2022-08-19T07:50:57;26.50;65.80
65231;DHT22;51813;40.666;16.602;2022-08-19T07:53:28;26.60;65.60
65231;DHT22;51813;40.666;16.602;2022-08-19T07:55:54;26.60;65.70
65231;DHT22;51813;40.666;16.602;2022-08-19T07:58:22;26.50;65.70
65231;DHT22;51813;40.666;16.602;2022-08-19T08:00:49;26.50;65.70
65231;DHT22;51813;40.666;16.602;2022-08-19T08:03:17;26.50;65.50
65231;DHT22;51813;40.666;16.602;2022-08-19T08:05:44;26.60;64.90
65231;DHT22;51813;40.666;16.602;2022-08-19T08:08:29;26.60;64.90
65231;DHT22;51813;40.666;16.602;2022-08-19T08:11:11;26.60;64.80
65231;DHT22;51813;40.666;16.602;2022-08-19T08:13:36;26.60;64.80
65231;DHT22;51813;40.666;16.602;2022-08-19T08:16:03;26.60;64.80
65231;DHT22;51813;40.666;16.602;2022-08-19T08:18:28;26.60;65.20
65231;DHT22;51813;40.666;16.602;2022-08-19T08:20:55;26.60;66.00
65231;DHT22;51813;40.666;16.602;2022-08-19T08:23:22;26.60;66.70
65231;DHT22;51813;40.666;16.602;2022-08-19T08:25:49;26.50;66.60
65231;DHT22;51813;40.666;16.602;2022-08-19T08:28:16;26.60;66.60
65231;DHT22;51813;40.666;16.602;2022-08-19T08:30:42;26.60;66.50
65231;DHT22;51813;40.666;16.602;2022-08-19T08:33:09;26.60;66.30
65231;DHT22;51813;40.666;16.602;2022-08-19T08:35:35;26.60;66.50
65231;DHT22;51813;40.666;16.602;2022-08-19T08:38:03;26.60;67.40
65231;DHT22;51813;40.666;16.602;2022-08-19T08:48:37;26.60;66.70
65231;DHT22;51813;40.666;16.602;2022-08-19T08:51:09;26.70;66.80
65231;DHT22;51813;40.666;16.602;2022-08-19T08:53:36;26.70;66.40
65231;DHT22;51813;40.666;16.602;2022-08-19T08:56:06;26.70;66.30
65231;DHT22;51813;40.666;16.602;2022-08-19T09:01:24;26.70;65.70
65231;DHT22;51813;40.666;16.602;2022-08-19T09:03:50;26.70;65.30
65231;DHT22;51813;40.666;16.602;2022-08-19T09:17:12;27.10;63.90
65231;DHT22;51813;40.666;16.602;2022-08-19T09:19:56;27.30;63.40
65231;DHT22;51813;40.666;16.602;2022-08-19T09:22:23;27.40;63.20
65231;DHT22;51813;40.666;16.602;2022-08-19T09:24:50;27.40;63.10
65231;DHT22;51813;40.666;16.602;2022-08-19T09:27:18;27.40;63.50
65231;DHT22;51813;40.666;16.602;2022-08-19T09:29:46;27.30;63.80
65231;DHT22;51813;40.666;16.602;2022-08-19T09:32:14;27.30;64.30
65231;DHT22;51813;40.666;16.602;2022-08-19T09:34:40;27.30;64.30
65231;DHT22;51813;40.666;16.602;2022-08-19T09:37:06;27.30;64.30
65231;DHT22;51813;40.666;16.602;2022-08-19T09:39:32;27.40;64.00
65231;DHT22;51813;40.666;16.602;2022-08-19T09:41:58;27.40;64.10
65231;DHT22;51813;40.666;16.602;2022-08-19T09:44:24;27.40;64.30
65231;DHT22;51813;40.666;16.602;2022-08-19T09:46:49;27.50;64.40
65231;DHT22;51813;40.666;16.602;2022-08-19T09:49:17;27.50;64.50
65231;DHT22;51813;40.666;16.602;2022-08-19T09:51:43;27.50;64.40
65231;DHT22;51813;40.666;16.602;2022-08-19T09:54:09;27.60;64.40
65231;DHT22;51813;40.666;16.602;2022-08-19T09:56:35;27.70;64.20
65231;DHT22;51813;40.666;16.602;2022-08-19T09:59:02;27.70;63.80
65231;DHT22;51813;40.666;16.602;2022-08-19T10:01:30;27.80;63.40
65231;DHT22;51813;40.666;16.602;2022-08-19T10:03:58;27.90;63.10
65231;DHT22;51813;40.666;16.602;2022-08-19T10:06:25;28.00;63.10
65231;DHT22;51813;40.666;16.602;2022-08-19T10:08:55;28.00;62.90
65231;DHT22;51813;40.666;16.602;2022-08-19T10:11:21;28.00;63.10
65231;DHT22;51813;40.666;16.602;2022-08-19T10:13:47;28.10;62.90
65231;DHT22;51813;40.666;16.602;2022-08-19T10:16:20;28.10;62.90
65231;DHT22;51813;40.666;16.602;2022-08-19T10:18:47;28.20;62.90
65231;DHT22;51813;40.666;16.602;2022-08-19T10:21:16;28.20;62.80
65231;DHT22;51813;40.666;16.602;2022-08-19T10:23:44;28.30;63.50
65231;DHT22;51813;40.666;16.602;2022-08-19T10:26:19;28.40;62.90
65231;DHT22;51813;40.666;16.602;2022-08-19T10:28:45;28.30;62.90
65231;DHT22;51813;40.666;16.602;2022-08-19T10:31:14;28.30;63.10
65231;DHT22;51813;40.666;16.602;2022-08-19T10:33:40;28.30;63.40
65231;DHT22;51813;40.666;16.602;2022-08-19T10:36:13;28.30;63.00
65231;DHT22;51813;40.666;16.602;2022-08-19T10:38:40;28.30;63.40
65231;DHT22;51813;40.666;16.602;2022-08-19T10:41:15;28.30;63.10
65231;DHT22;51813;40.666;16.602;2022-08-19T10:43:41;28.30;62.90
65231;DHT22;51813;40.666;16.602;2022-08-19T10:46:10;28.30;63.20
65231;DHT22;51813;40.666;16.602;2022-08-19T10:48:36;28.30;63.10
65231;DHT22;51813;40.666;16.602;2022-08-19T10:51:03;28.30;63.70
65231;DHT22;51813;40.666;16.602;2022-08-19T10:53:48;28.20;63.80
65231;DHT22;51813;40.666;16.602;2022-08-19T10:56:14;28.10;64.00
65231;DHT22;51813;40.666;16.602;2022-08-19T10:58:58;28.10;63.90
65231;DHT22;51813;40.666;16.602;2022-08-19T11:01:25;28.10;63.30
65231;DHT22;51813;40.666;16.602;2022-08-19T11:03:51;28.10;63.50
65231;DHT22;51813;40.666;16.602;2022-08-19T11:06:18;28.00;63.30
65231;DHT22;51813;40.666;16.602;2022-08-19T11:08:45;28.00;63.00
65231;DHT22;51813;40.666;16.602;2022-08-19T11:11:12;28.10;63.10
65231;DHT22;51813;40.666;16.602;2022-08-19T11:13:39;28.00;62.60
65231;DHT22;51813;40.666;16.602;2022-08-19T11:16:12;28.00;62.90
65231;DHT22;51813;40.666;16.602;2022-08-19T11:18:42;28.00;62.60
65231;DHT22;51813;40.666;16.602;2022-08-19T11:21:29;28.00;62.60
65231;DHT22;51813;40.666;16.602;2022-08-19T11:24:00;27.90;62.70
65231;DHT22;51813;40.666;16.602;2022-08-19T11:26:29;27.90;62.70
65231;DHT22;51813;40.666;16.602;2022-08-19T11:28:56;27.90;62.20
65231;DHT22;51813;40.666;16.602;2022-08-19T11:31:26;28.00;62.10
65231;DHT22;51813;40.666;16.602;2022-08-19T11:33:52;28.00;62.20
65231;DHT22;51813;40.666;16.602;2022-08-19T11:36:20;28.00;62.00
65231;DHT22;51813;40.666;16.602;2022-08-19T11:38:50;28.00;61.90
65231;DHT22;51813;40.666;16.602;2022-08-19T11:41:18;27.90;62.10
65231;DHT22;51813;40.666;16.602;2022-08-19T11:43:44;27.90;62.00
65231;DHT22;51813;40.666;16.602;2022-08-19T11:46:12;27.90;62.20
65231;DHT22;51813;40.666;16.602;2022-08-19T11:48:38;27.90;62.40
65231;DHT22;51813;40.666;16.602;2022-08-19T11:51:10;28.00;62.00
65231;DHT22;51813;40.666;16.602;2022-08-19T11:53:37;28.00;61.60
65231;DHT22;51813;40.666;16.602;2022-08-19T11:56:04;28.00;61.90
65231;DHT22;51813;40.666;16.602;2022-08-19T11:58:30;28.00;61.90
65231;DHT22;51813;40.666;16.602;2022-08-19T12:00:56;27.90;61.70
65231;DHT22;51813;40.666;16.602;2022-08-19T12:03:22;27.90;62.10
65231;DHT22;51813;40.666;16.602;2022-08-19T12:05:49;27.90;61.80
65231;DHT22;51813;40.666;16.602;2022-08-19T12:08:15;27.90;61.70
65231;DHT22;51813;40.666;16.602;2022-08-19T12:10:42;27.90;61.80
65231;DHT22;51813;40.666;16.602;2022-08-19T12:13:09;28.00;61.80
65231;DHT22;51813;40.666;16.602;2022-08-19T12:15:39;28.00;61.60
65231;DHT22;51813;40.666;16.602;2022-08-19T12:18:09;28.00;61.70
65231;DHT22;51813;40.666;16.602;2022-08-19T12:20:36;28.00;61.60
65231;DHT22;51813;40.666;16.602;2022-08-19T12:23:02;28.00;62.00
65231;DHT22;51813;40.666;16.602;2022-08-19T12:25:28;28.00;61.60
65231;DHT22;51813;40.666;16.602;2022-08-19T12:27:54;28.00;61.70
65231;DHT22;51813;40.666;16.602;2022-08-19T12:30:20;28.00;61.20
65231;DHT22;51813;40.666;16.602;2022-08-19T12:32:46;28.00;61.50
65231;DHT22;51813;40.666;16.602;2022-08-19T12:35:11;27.90;62.40
65231;DHT22;51813;40.666;16.602;2022-08-19T12:37:38;27.90;63.10
65231;DHT22;51813;40.666;16.602;2022-08-19T12:40:05;27.90;63.50
65231;DHT22;51813;40.666;16.602;2022-08-19T12:42:30;27.90;63.90
65231;DHT22;51813;40.666;16.602;2022-08-19T12:44:56;27.90;64.20
65231;DHT22;51813;40.666;16.602;2022-08-19T12:47:22;27.90;64.20
65231;DHT22;51813;40.666;16.602;2022-08-19T12:49:48;28.00;64.40
65231;DHT22;51813;40.666;16.602;2022-08-19T12:52:14;27.90;63.80
65231;DHT22;51813;40.666;16.602;2022-08-19T12:54:41;28.00;64.00
65231;DHT22;51813;40.666;16.602;2022-08-19T12:57:09;28.00;63.90
65231;DHT22;51813;40.666;16.602;2022-08-19T12:59:36;28.10;63.80
65231;DHT22;51813;40.666;16.602;2022-08-19T13:02:06;28.00;63.70
65231;DHT22;51813;40.666;16.602;2022-08-19T13:04:33;28.00;63.50
65231;DHT22;51813;40.666;16.602;2022-08-19T13:07:06;28.00;63.40
65231;DHT22;51813;40.666;16.602;2022-08-19T13:09:33;28.10;63.50
65231;DHT22;51813;40.666;16.602;2022-08-19T13:11:59;28.00;63.70
65231;DHT22;51813;40.666;16.602;2022-08-19T13:14:26;28.10;63.70
65231;DHT22;51813;40.666;16.602;2022-08-19T13:16:51;28.10;64.20
65231;DHT22;51813;40.666;16.602;2022-08-19T13:19:17;28.20;63.50
65231;DHT22;51813;40.666;16.602;2022-08-19T13:21:49;28.20;63.10
65231;DHT22;51813;40.666;16.602;2022-08-19T13:24:15;28.20;63.50
65231;DHT22;51813;40.666;16.602;2022-08-19T13:26:40;28.20;63.60
65231;DHT22;51813;40.666;16.602;2022-08-19T13:29:06;28.20;63.40
65231;DHT22;51813;40.666;16.602;2022-08-19T13:31:50;28.30;63.00
65231;DHT22;51813;40.666;16.602;2022-08-19T13:34:35;28.40;62.80
65231;DHT22;51813;40.666;16.602;2022-08-19T13:37:01;28.40;62.70
65231;DHT22;51813;40.666;16.602;2022-08-19T13:39:31;28.50;62.30
65231;DHT22;51813;40.666;16.602;2022-08-19T13:41:58;28.50;62.10
65231;DHT22;51813;40.666;16.602;2022-08-19T13:44:26;28.50;62.00
65231;DHT22;51813;40.666;16.602;2022-08-19T13:46:59;28.60;62.10
65231;DHT22;51813;40.666;16.602;2022-08-19T13:49:28;28.50;62.40
65231;DHT22;51813;40.666;16.602;2022-08-19T13:51:56;28.60;62.70
65231;DHT22;51813;40.666;16.602;2022-08-19T13:54:22;28.60;62.40
65231;DHT22;51813;40.666;16.602;2022-08-19T13:56:48;28.60;62.00
65231;DHT22;51813;40.666;16.602;2022-08-19T13:59:13;28.60;61.90
65231;DHT22;51813;40.666;16.602;2022-08-19T14:01:40;28.70;61.90
65231;DHT22;51813;40.666;16.602;2022-08-19T14:04:07;28.70;61.80
65231;DHT22;51813;40.666;16.602;2022-08-19T14:06:33;28.70;61.60
65231;DHT22;51813;40.666;16.602;2022-08-19T14:08:59;28.60;61.70
65231;DHT22;51813;40.666;16.602;2022-08-19T14:11:25;28.60;61.50
65231;DHT22;51813;40.666;16.602;2022-08-19T14:13:51;28.60;61.30
65231;DHT22;51813;40.666;16.602;2022-08-19T14:16:17;28.60;61.00
65231;DHT22;51813;40.666;16.602;2022-08-19T14:18:43;28.60;60.90
65231;DHT22;51813;40.666;16.602;2022-08-19T14:21:16;28.60;61.00
65231;DHT22;51813;40.666;16.602;2022-08-19T14:23:43;28.60;61.00
65231;DHT22;51813;40.666;16.602;2022-08-19T14:26:13;28.70;60.80
65231;DHT22;51813;40.666;16.602;2022-08-19T14:28:39;28.70;60.80
65231;DHT22;51813;40.666;16.602;2022-08-19T14:31:11;28.70;60.90
65231;DHT22;51813;40.666;16.602;2022-08-19T14:33:37;28.70;61.40
65231;DHT22;51813;40.666;16.602;2022-08-19T14:36:03;28.60;61.70
65231;DHT22;51813;40.666;16.602;2022-08-19T14:38:29;28.50;61.60
65231;DHT22;51813;40.666;16.602;2022-08-19T14:41:09;28.60;61.90
65231;DHT22;51813;40.666;16.602;2022-08-19T14:43:34;28.50;61.70
65231;DHT22;51813;40.666;16.602;2022-08-19T14:46:00;28.50;61.90
65231;DHT22;51813;40.666;16.602;2022-08-19T14:48:27;28.50;61.90
65231;DHT22;51813;40.666;16.602;2022-08-19T14:50:52;28.40;61.90
65231;DHT22;51813;40.666;16.602;2022-08-19T14:53:18;28.40;61.80
65231;DHT22;51813;40.666;16.602;2022-08-19T14:55:45;28.30;61.90
65231;DHT22;51813;40.666;16.602;2022-08-19T14:58:11;28.30;62.20
65231;DHT22;51813;40.666;16.602;2022-08-19T15:00:37;28.20;62.30
65231;DHT22;51813;40.666;16.602;2022-08-19T15:03:03;28.20;62.50
65231;DHT22;51813;40.666;16.602;2022-08-19T15:05:29;28.20;62.80
65231;DHT22;51813;40.666;16.602;2022-08-19T15:07:54;28.20;63.00
65231;DHT22;51813;40.666;16.602;2022-08-19T15:10:22;28.20;63.30
65231;DHT22;51813;40.666;16.602;2022-08-19T15:12:50;28.20;63.10
65231;DHT22;51813;40.666;16.602;2022-08-19T15:15:16;28.10;63.00
65231;DHT22;51813;40.666;16.602;2022-08-19T15:17:43;28.10;63.20
65231;DHT22;51813;40.666;16.602;2022-08-19T15:20:12;28.00;63.30
65231;DHT22;51813;40.666;16.602;2022-08-19T15:22:38;28.00;63.50
65231;DHT22;51813;40.666;16.602;2022-08-19T15:25:07;28.00;63.50
65231;DHT22;51813;40.666;16.602;2022-08-19T15:27:33;28.00;63.60
65231;DHT22;51813;40.666;16.602;2022-08-19T15:30:00;28.00;63.60
65231;DHT22;51813;40.666;16.602;2022-08-19T15:32:25;28.00;63.80
65231;DHT22;51813;40.666;16.602;2022-08-19T15:34:53;28.00;63.80
65231;DHT22;51813;40.666;16.602;2022-08-19T15:37:19;27.90;63.90
65231;DHT22;51813;40.666;16.602;2022-08-19T15:39:48;28.00;64.10
65231;DHT22;51813;40.666;16.602;2022-08-19T15:42:14;28.00;64.50
65231;DHT22;51813;40.666;16.602;2022-08-19T15:44:39;28.00;64.60